This is the latest recevied weather packets stored in our database for station/object LRAR. If no packets are shown the sender has not sent any weather packets the latest 10 day(s).
| Time | Temp. | Humidity | Pressure | Rain* | Wind** | Luminosity | Snow |
|---|---|---|---|---|---|---|---|
| 1777687419 | 2.78° C | 87% | 1023 hPa | - | - | - | - |
| 1777686519 | 3.89° C | 81% | 1024 hPa | - | - | - | - |
| 1777685618 | 3.89° C | 81% | 1024 hPa | - | - | - | - |
| 1777684719 | 2.78° C | 81% | 1024 hPa | - | - | - | - |
| 1777683818 | 2.78° C | 81% | 1024 hPa | - | - | - | - |
| 1777682918 | 2.78° C | 81% | 1024 hPa | - | - | - | - |
| 1777682019 | 2.78° C | 81% | 1024 hPa | - | - | - | - |
| 1777681118 | 3.89° C | 70% | 1024 hPa | - | - | - | - |
| 1777680219 | 3.89° C | 70% | 1024 hPa | - | - | - | - |
| 1777679329 | 3.89° C | 65% | 1024 hPa | - | - | - | - |
| 1777678419 | 3.89° C | 65% | 1024 hPa | - | - | - | - |
| 1777677518 | 5° C | 66% | 1024 hPa | - | - | - | - |
| 1777676619 | 5° C | 66% | 1024 hPa | - | - | - | - |
| 1777675718 | 7.22° C | 57% | 1024 hPa | - | - | - | - |
| 1777674818 | 7.22° C | 57% | 1024 hPa | - | - | - | - |
| 1777673919 | 6.11° C | 61% | 1024 hPa | - | - | - | - |
| 1777673018 | 6.11° C | 61% | 1024 hPa | - | - | - | - |
| 1777672118 | 6.11° C | 57% | 1024 hPa | - | - | - | - |
| 1777671219 | 6.11° C | 57% | 1024 hPa | - | - | - | - |
| 1777670318 | 3.89° C | 70% | 1024 hPa | - | - | - | - |
| 1777669419 | 3.89° C | 70% | 1024 hPa | - | - | - | - |
| 1777668518 | 7.78° C | 53% | 1024 hPa | - | - | - | - |
| 1777667618 | 7.78° C | 53% | 1024 hPa | - | - | - | - |
| 1777666719 | 10° C | 47% | 1024 hPa | - | - | - | - |
| 1777665818 | 10° C | 47% | 1024 hPa | - | - | - | - |
* Rain since midnight (hover to see other rain measurements)
** Current wind speed in m/s (hover to see current wind gust speed)